Leonidas Bakasetas

Olheiro-Chefe - Olympiacos
26 Fev 2027
Sexta-feira
Processo

Personalidade

Adaptabilidade (6) Ambição (17) Controvérsia (11) Lealdade (17) Pressão (2) Profissionalismo (12) Espírito Esportivo (6) Temperamento (19)

Perfil

Estilo de Treinamento Democrático
Licença Continental B
Determinação 6
Gestão de Pessoas 9
Motivação 8
Disciplina 14
Satisfação no Trabalho
97%
Fadiga
0%
Função Olheiro-Chefe
Salário 25.3K p/s
Contrato 14.03.2030

Desempenho

Comportamento Bom
Eficácia do Treinamento
45%
Desenvolvimento do Jogador
65%
Prevenção de Lesões
45%
Implementação Tática
40%

Eventos Recentes

Avaliou um jogador 28d atrás
Participou de uma reunião de recrutamento 28d atrás
Recomendou um alvo de transferência 28d atrás
Avaliou um jogador 28d atrás
Avaliou um jogador 28d atrás
Avaliou um jogador 28d atrás
Avaliou um jogador 28d atrás
Avaliou um jogador 28d atrás

Monitorando agora

90
Jogador Clube Status Habilidade Confiança Observado Última observação Último voto
Pedrinho Shakhtar Ativo 139 / 133 40% 2 31.01.2027 -
Marquinhos APOEL Ativo 134 / 124 40% 3 31.01.2027 -
Manu García Aris Thessaloniki Ativo 130 / 134 40% 1 31.01.2027 -
Ali Youssef Apollon Ativo 127 / 111 40% 3 29.01.2027 -
Brian Rodríguez Club America Ativo 137 / 138 40% 3 29.01.2027 -
John Mercado Sparta Prague Ativo 127 / 127 40% 2 29.01.2027 -
Nemanja Radonjić Crvena Zvezda Ativo 133 / 122 40% 3 28.01.2027 -
Fernando Valenzuela Queretaro Ativo 136 / 137 40% 3 27.01.2027 -
Caio Vidal Ludogorets Ativo 128 / 123 40% 2 27.01.2027 -
Domagoj Drožđek Tractor Ativo 124 / 127 40% 2 27.01.2027 -
Uriel Antuna Pumas UNAM Ativo 141 / 134 40% 2 26.01.2027 -
Daniel Banjaqui Benfica Ativo 107 / 128 40% 1 26.01.2027 -
Jonathan Bland Barnsley Ativo 99 / 101 40% 1 26.01.2027 -
Cemran Dansin Orlando Pirates Ativo 117 / 118 40% 1 26.01.2027 -
Bernard Tekpetey Ludogorets Ativo 123 / 128 40% 1 26.01.2027 -
Oston O'runov Persepolis Ativo 120 / 129 40% 3 25.01.2027 -
Milson Al Jazira Ativo 133 / 131 40% 2 25.01.2027 -
Lukáš Provod Slavia Prague Ativo 145 / 143 40% 2 24.01.2027 -
Abbosbek Fayzullayev Basaksehir Ativo 135 / 123 40% 1 24.01.2027 -
Carlos Rotondi Cruz Azul Ativo 131 / 132 40% 2 22.01.2027 -
Ibrahim Bayesh Al Dhafra Ativo 121 / 128 40% 1 22.01.2027 -
Atsuki Ito Bolton Wanderers Ativo 127 / 130 40% 1 21.01.2027 -
Andy Irving Sparta Prague Ativo 130 / 126 40% 1 21.01.2027 -
Liel Abada Charlotte Football Club Ativo 139 / 134 40% 3 20.01.2027 -
Adam Armstrong Wolverhampton Ativo 130 / 135 40% 2 20.01.2027 -
Gerónimo Rivera Al Wahda Ativo 131 / 129 40% 1 20.01.2027 -
Manfred Ugalde Spartak Moscow Ativo 132 / 132 40% 2 19.01.2027 -
Toni Fruk HNK Rijeka Ativo 134 / 141 40% 2 19.01.2027 -
Raúl García Osasuna Ativo 131 / 139 40% 1 18.01.2027 -
Sam Surridge Nashville SC Ativo 134 / 140 40% 2 16.01.2027 -
Youssef En-Nesyri Zenit Ativo 142 / 134 40% 2 16.01.2027 -
Oswin Appollis Orlando Pirates Ativo 119 / 126 40% 1 16.01.2027 -
Aboubakary Koita AEK Ativo 128 / 130 40% 1 16.01.2027 -
Everton Bala Levski Ativo 130 / 130 40% 2 14.01.2027 -
Khalid Rashid Al Ahli Ativo 143 / 134 40% 1 14.01.2027 -
Oleksandr Zubkov AEK Ativo 138 / 139 40% 1 13.01.2027 -
Emmanuel Boateng Hapoel Tel Aviv Ativo 119 / 128 40% 1 13.01.2027 -
Marquinhos Spartak Moscow Ativo 128 / 134 40% 2 12.01.2027 -
Gustavo Mantuan Zenit Ativo 130 / 140 40% 1 12.01.2027 -
Aaron Connolly Leyton Orient Ativo 119 / 118 40% 2 11.01.2027 -
Giannis Apostolakis OFI Relatório pronto 115 / 110 79% 1 11.01.2027 Aprovar
Kein Sato Dynamo Kyiv Ativo 127 / 132 40% 1 11.01.2027 -
Mirlind Daku Spartak Moscow Ativo 132 / 129 40% 1 11.01.2027 -
Sam Tickle Wigan Athletic Ativo 127 / 121 40% 1 11.01.2027 -
Sławomir Abramowicz Jagiellonia Ativo 117 / 118 40% 1 11.01.2027 -
Santino Barbi Talleres Ativo 113 / 114 40% 1 11.01.2027 -
Viktor Dibusz Haladas Ativo 121 / 121 40% 1 08.01.2027 -
Stav Toriel Hapoel Tel Aviv Ativo 134 / 125 40% 1 06.01.2027 -
Matías Vargas Gimnasia y Esgrima Ativo 125 / 125 40% 1 06.01.2027 -
Bitello Dinamo Moscow Ativo 140 / 140 40% 1 06.01.2027 -
Oladapo Afolayan Blackburn Rovers Ativo 121 / 126 40% 1 06.01.2027 -
Teboho Mokoena Mamelodi Sundowns Ativo 136 / 136 40% 2 05.01.2027 -
Kingsley Coman Al-Nassr Ativo 148 / 152 40% 1 05.01.2027 -
Andrew Moran Preston Ativo 128 / 118 40% 1 03.01.2027 -
Galeno Al-Ahli Ativo 152 / 138 40% 1 03.01.2027 -
Morgan Whittaker Middlesbrough Ativo 127 / 124 40% 1 03.01.2027 -
Erik Prekop Gornik Zabrze Ativo 131 / 127 40% 1 03.01.2027 -
Gonzalo Plata Dinamo Moscow Ativo 140 / 137 40% 2 01.01.2027 -
Luka Jović AEK Ativo 133 / 133 40% 3 30.08.2026 -
Alexey Miranchuk Atlanta United FC Ativo 139 / 147 40% 1 30.08.2026 -
Dániel Gazdag Columbus Crew Ativo 139 / 131 40% 1 29.08.2026 -
Christian Kouamé Aris Thessaloniki Rejeitado 130 / 125 40% 2 28.08.2026 Mais informações
Julián Quiñones Al-Qadisiyah Ativo 138 / 152 40% 5 27.08.2026 -
Konstantin Tyukavin Dinamo Moscow Ativo 133 / 129 40% 3 27.08.2026 -
Felipe Augusto Zenit Ativo 135 / 142 40% 2 27.08.2026 -
Herman Johansson FC Dallas Ativo 131 / 115 40% 1 27.08.2026 -
Adrián Marín Orlando City Ativo 125 / 121 40% 1 27.08.2026 -
Timo Werner San Jose Earthquakes Ativo 135 / 140 40% 1 27.08.2026 -
Anton Salétros Chicago Fire Ativo 132 / 119 40% 2 26.08.2026 -
Anders Dreyer San Diego Football Club Ativo 134 / 120 40% 1 26.08.2026 -
Iván Angulo Orlando City Ativo 122 / 116 40% 1 26.08.2026 -
Paxten Aaronson Colorado Rapids Ativo 139 / 125 40% 2 25.08.2026 -
Ivan Toney Al-Ahli Ativo 153 / 151 40% 2 23.08.2026 -
Marcel Hartel St. Louis CITY SC Ativo 120 / 137 40% 1 23.08.2026 -
Pedro de la Vega Seattle Sounders Ativo 133 / 146 40% 1 23.08.2026 -
Veljko Birmančević Ferencvaros Ativo 130 / 131 40% 3 21.08.2026 -
Ashkan Dejagah Padideh Ativo 138 / 137 40% 2 20.08.2026 -
Rúben Neves Al-Hilal Ativo 145 / 150 40% 3 14.08.2026 -
Merih Demiral Al-Ahli Ativo 128 / 145 40% 3 12.08.2026 -
Mohamed Camara Maccabi Tel Aviv Ativo 130 / 123 40% 1 12.08.2026 -
Mohamed Simakan Al-Nassr Ativo 134 / 127 40% 2 10.08.2026 -
Saeid Beiranvand Padideh Ativo 141 / 137 40% 2 09.08.2026 -
Jaime Seoane Al-Faisaly Ativo 130 / 123 40% 1 09.08.2026 -
Yacine Adli Al-Shabab Ativo 127 / 144 40% 1 04.08.2026 -
Théo Hernández Al-Hilal Ativo 147 / 147 40% 1 04.08.2026 -
Valentino Lazaro Al Ain Ativo 129 / 134 40% 1 03.08.2026 -
Pedro Malheiro Al Wasl Ativo 128 / 129 40% 1 03.08.2026 -
Eduard Spertsyan Al-Ahli Ativo 147 / 148 40% 1 03.08.2026 -
Kaan Kairinen AEK Ativo 125 / 121 40% 1 03.08.2026 -
Samú Al-Nassr Ativo 134 / 140 40% 1 03.08.2026 -